Time;durP1;ratioP1;P1;durP2;ratioP2;P2;SDS_P1;SDS_P2;PMS_P1;PMS_P2;Temp;Humidity;BMP_temperature;BMP_pressure;BME280_temperature;BME280_humidity;BME280_pressure;Samples;Min_cycle;Max_cycle;Signal;HPM_P1;HPM_P2
2024/01/14 00:01:18;;;;;;;25.30;22.63;;;;;;;;;;4882919;29;20096;-96
2024/01/14 00:03:44;;;;;;;24.50;21.90;;;;;;;;;;4864801;29;20068;-90
2024/01/14 00:06:17;;;;;;;23.83;20.75;;;;;;;;;;4863611;29;20132;-94
2024/01/14 00:08:43;;;;;;;22.73;20.30;;;;;;;;;;4864031;29;20029;-94
2024/01/14 00:11:18;;;;;;;24.25;21.67;;;;;;;;;;4864063;29;20041;-95
2024/01/14 00:13:44;;;;;;;22.23;19.92;;;;;;;;;;4864142;29;20025;-91
2024/01/14 00:16:10;;;;;;;23.70;21.15;;;;;;;;;;4864160;29;20040;-93
2024/01/14 00:18:37;;;;;;;22.65;19.83;;;;;;;;;;4863437;29;20128;-90
2024/01/14 00:21:03;;;;;;;22.67;20.27;;;;;;;;;;4863239;29;20193;-93
2024/01/14 00:23:29;;;;;;;24.27;21.77;;;;;;;;;;4863867;29;20116;-92
2024/01/14 00:25:56;;;;;;;25.65;22.88;;;;;;;;;;4863651;29;20124;-93
2024/01/14 00:28:22;;;;;;;24.50;21.33;;;;;;;;;;4863842;29;20029;-92
2024/01/14 00:30:48;;;;;;;25.02;19.92;;;;;;;;;;4863425;29;20047;-92
2024/01/14 00:33:17;;;;;;;25.17;21.92;;;;;;;;;;4873485;29;20398;-90
2024/01/14 00:35:44;;;;;;;23.77;21.25;;;;;;;;;;4882057;29;20032;-91
2024/01/14 00:38:10;;;;;;;22.80;20.00;;;;;;;;;;4884943;29;20436;-91
2024/01/14 00:40:37;;;;;;;26.67;23.50;;;;;;;;;;4886077;29;20149;-90
2024/01/14 00:43:03;;;;;;;26.33;23.20;;;;;;;;;;4886227;29;20077;-91
2024/01/14 00:48:44;;;;;;;26.75;23.15;;;;;;;;;;4884628;29;20035;-94
2024/01/14 00:57:18;;;;;;;30.23;24.55;;;;;;;;;;4895787;29;20101;-91
2024/01/14 00:59:57;;;;;;;33.10;25.25;;;;;;;;;;4867008;29;20201;-94
2024/01/14 01:02:37;;;;;;;34.70;25.80;;;;;;;;;;4881848;29;20036;-95
2024/01/14 01:05:13;;;;;;;35.13;26.00;;;;;;;;;;4873196;29;20032;-94
2024/01/14 01:10:52;;;;;;;32.95;24.83;;;;;;;;;;4902215;29;20182;-93
2024/01/14 01:13:28;;;;;;;36.63;26.60;;;;;;;;;;4884901;29;20039;-93
2024/01/14 01:19:23;;;;;;;37.95;27.15;;;;;;;;;;4882826;29;20080;-94
2024/01/14 01:31:18;;;;;;;41.57;28.73;;;;;;;;;;4883118;29;20092;-95
2024/01/14 01:33:55;;;;;;;40.17;27.77;;;;;;;;;;4862181;29;20049;-92
2024/01/14 01:36:21;;;;;;;44.13;26.77;;;;;;;;;;4866289;29;20132;-93
2024/01/14 01:38:47;;;;;;;46.03;26.65;;;;;;;;;;4866490;29;20025;-92
2024/01/14 01:41:14;;;;;;;46.72;28.58;;;;;;;;;;4883062;29;20021;-92
2024/01/14 01:43:40;;;;;;;46.67;27.48;;;;;;;;;;4870812;29;20534;-92
2024/01/14 01:46:07;;;;;;;45.97;27.83;;;;;;;;;;4884475;29;20029;-93
2024/01/14 01:48:33;;;;;;;47.58;29.48;;;;;;;;;;4883321;29;20037;-91
2024/01/14 01:50:59;;;;;;;45.85;31.10;;;;;;;;;;4884892;29;20044;-91
2024/01/14 01:53:28;;;;;;;51.33;30.02;;;;;;;;;;4876796;29;20106;-89
2024/01/14 01:55:55;;;;;;;50.97;29.52;;;;;;;;;;4884678;29;20505;-92
2024/01/14 01:58:21;;;;;;;58.40;30.33;;;;;;;;;;4884527;29;20048;-92
2024/01/14 02:00:49;;;;;;;50.83;29.60;;;;;;;;;;4873457;29;20040;-93
2024/01/14 02:03:15;;;;;;;52.17;30.10;;;;;;;;;;4866148;29;20049;-92
2024/01/14 02:05:44;;;;;;;55.47;28.98;;;;;;;;;;4866071;29;20040;-93
2024/01/14 02:08:12;;;;;;;54.45;29.67;;;;;;;;;;4865773;29;20089;-92
2024/01/14 02:10:38;;;;;;;51.78;29.77;;;;;;;;;;4881987;29;20088;-94
2024/01/14 02:13:05;;;;;;;53.90;30.08;;;;;;;;;;4884179;29;20050;-90
2024/01/14 02:15:32;;;;;;;54.00;30.25;;;;;;;;;;4883905;29;20446;-89
2024/01/14 02:17:58;;;;;;;51.50;29.60;;;;;;;;;;4884075;29;20033;-92
2024/01/14 02:20:24;;;;;;;49.90;30.25;;;;;;;;;;4884655;29;20486;-91
2024/01/14 02:22:52;;;;;;;55.03;31.17;;;;;;;;;;4867833;29;20509;-92
2024/01/14 02:25:19;;;;;;;55.65;29.42;;;;;;;;;;4865996;29;20041;-95
2024/01/14 02:27:45;;;;;;;52.00;30.00;;;;;;;;;;4866489;29;20176;-92
2024/01/14 02:30:12;;;;;;;57.85;31.20;;;;;;;;;;4865768;29;20125;-95
2024/01/14 02:32:38;;;;;;;54.35;31.77;;;;;;;;;;4865801;29;20036;-91
2024/01/14 02:35:05;;;;;;;56.45;29.85;;;;;;;;;;4897386;29;20021;-93
2024/01/14 02:37:33;;;;;;;53.80;29.45;;;;;;;;;;4905251;29;20031;-93
2024/01/14 02:39:59;;;;;;;59.90;31.30;;;;;;;;;;4884326;29;20085;-91
2024/01/14 02:42:25;;;;;;;55.15;32.70;;;;;;;;;;4883694;29;20071;-95
2024/01/14 02:44:55;;;;;;;57.13;32.05;;;;;;;;;;4883764;29;20032;-90
2024/01/14 02:47:21;;;;;;;61.30;30.33;;;;;;;;;;4883298;29;20372;-94
2024/01/14 02:49:47;;;;;;;53.63;29.55;;;;;;;;;;4871262;29;20029;-94
2024/01/14 02:52:14;;;;;;;54.25;33.42;;;;;;;;;;4864566;29;20045;-95
2024/01/14 02:55:04;;;;;;;60.33;34.72;;;;;;;;;;4864807;29;20021;-95
2024/01/14 02:57:30;;;;;;;58.40;33.70;;;;;;;;;;4864967;29;20033;-92
2024/01/14 03:00:08;;;;;;;52.08;32.53;;;;;;;;;;4864709;29;20115;-96
2024/01/14 03:02:41;;;;;;;59.53;35.97;;;;;;;;;;4864691;29;20812;-93
2024/01/14 03:05:07;;;;;;;54.55;34.55;;;;;;;;;;4865076;29;20029;-92
2024/01/14 03:07:40;;;;;;;54.00;33.22;;;;;;;;;;4865025;29;20037;-94
2024/01/14 03:10:06;;;;;;;54.70;32.92;;;;;;;;;;4864896;29;20060;-96
2024/01/14 03:19:03;;;;;;;52.83;30.10;;;;;;;;;;4898200;23;20534;-95
2024/01/14 03:21:33;;;;;;;54.25;30.85;;;;;;;;;;4846001;29;20036;-94
2024/01/14 03:23:59;;;;;;;52.03;32.92;;;;;;;;;;4863245;29;20040;-94
2024/01/14 03:26:28;;;;;;;50.45;32.40;;;;;;;;;;4875012;29;20048;-96
2024/01/14 03:32:07;;;;;;;55.03;29.77;;;;;;;;;;4889414;29;20056;-94
2024/01/14 03:34:49;;;;;;;49.45;32.92;;;;;;;;;;4897691;23;20293;-92
2024/01/14 03:52:17;;;;;;;46.13;31.83;;;;;;;;;;4899228;29;20055;-91
2024/01/14 03:54:52;;;;;;;46.03;30.90;;;;;;;;;;4913329;23;20061;-96
2024/01/14 03:57:19;;;;;;;52.67;31.88;;;;;;;;;;4863777;29;20029;-93
2024/01/14 04:06:16;;;;;;;42.65;28.65;;;;;;;;;;4880554;29;20664;-94
2024/01/14 04:08:42;;;;;;;49.67;29.02;;;;;;;;;;4861098;29;20372;-92
2024/01/14 04:11:42;;;;;;;46.13;28.08;;;;;;;;;;4860826;29;20063;-91
2024/01/14 04:17:20;;;;;;;47.20;27.35;;;;;;;;;;4913405;29;20032;-92
2024/01/14 04:22:50;;;;;;;42.60;28.42;;;;;;;;;;4880546;29;20101;-95
2024/01/14 04:25:52;;;;;;;43.03;28.20;;;;;;;;;;4863641;29;20040;-92
2024/01/14 04:28:55;;;;;;;47.42;29.63;;;;;;;;;;4863562;29;20033;-95
2024/01/14 04:34:39;;;;;;;41.95;27.75;;;;;;;;;;4865468;29;20033;-95
2024/01/14 04:40:08;;;;;;;42.70;26.60;;;;;;;;;;4974615;23;20423;-95
2024/01/14 04:48:41;;;;;;;43.60;27.25;;;;;;;;;;4879932;29;20080;-94
2024/01/14 04:51:29;;;;;;;45.90;28.80;;;;;;;;;;4863367;29;20040;-94
2024/01/14 04:53:54;;;;;;;42.50;28.17;;;;;;;;;;4879695;29;20052;-91
2024/01/14 04:56:20;;;;;;;40.65;27.88;;;;;;;;;;4863435;29;20475;-92
2024/01/14 04:58:47;;;;;;;41.88;28.15;;;;;;;;;;4863769;29;20037;-93
2024/01/14 05:01:13;;;;;;;40.08;25.77;;;;;;;;;;4863449;29;20044;-92
2024/01/14 05:03:39;;;;;;;37.47;26.13;;;;;;;;;;4863308;29;20478;-91
2024/01/14 05:06:05;;;;;;;39.35;25.25;;;;;;;;;;4863134;29;20505;-93
2024/01/14 05:09:03;;;;;;;44.47;27.25;;;;;;;;;;4862948;29;20056;-92
2024/01/14 05:11:38;;;;;;;41.40;26.52;;;;;;;;;;4880435;29;20068;-95
2024/01/14 05:14:05;;;;;;;38.22;25.98;;;;;;;;;;4881932;29;20060;-96
2024/01/14 05:16:34;;;;;;;41.88;27.88;;;;;;;;;;4880795;29;20032;-96
2024/01/14 05:19:03;;;;;;;42.88;29.27;;;;;;;;;;4863196;29;20044;-93
2024/01/14 05:21:56;;;;;;;37.83;26.60;;;;;;;;;;4863287;29;20029;-95
2024/01/14 05:24:22;;;;;;;41.33;27.13;;;;;;;;;;4834996;29;20479;-95
2024/01/14 05:26:49;;;;;;;37.25;26.92;;;;;;;;;;4867259;29;20033;-94
2024/01/14 05:29:15;;;;;;;36.78;26.00;;;;;;;;;;4866934;29;20033;-95
2024/01/14 05:31:44;;;;;;;34.33;25.10;;;;;;;;;;4874999;29;20076;-96
2024/01/14 05:34:10;;;;;;;37.85;27.88;;;;;;;;;;4885151;29;20493;-96
2024/01/14 05:36:39;;;;;;;35.20;25.42;;;;;;;;;;4885742;29;20036;-96
2024/01/14 05:39:11;;;;;;;35.45;26.98;;;;;;;;;;4885140;29;20033;-94
2024/01/14 05:41:58;;;;;;;34.25;25.33;;;;;;;;;;4885723;29;20466;-90
2024/01/14 05:44:25;;;;;;;33.08;26.40;;;;;;;;;;4885463;29;20047;-96
2024/01/14 05:46:52;;;;;;;39.45;26.23;;;;;;;;;;4886082;29;20043;-96
2024/01/14 05:49:19;;;;;;;35.03;24.13;;;;;;;;;;4871585;29;20105;-92
2024/01/14 05:51:48;;;;;;;33.22;24.95;;;;;;;;;;4886315;29;20127;-95
2024/01/14 05:54:15;;;;;;;35.38;22.98;;;;;;;;;;4885890;29;20059;-93
2024/01/14 05:56:44;;;;;;;32.42;23.83;;;;;;;;;;4887457;29;20028;-93
2024/01/14 05:59:11;;;;;;;34.33;23.80;;;;;;;;;;4897314;29;20028;-94
2024/01/14 06:01:38;;;;;;;35.60;24.95;;;;;;;;;;4879425;29;20132;-94
2024/01/14 06:04:07;;;;;;;32.70;25.30;;;;;;;;;;4866203;29;20029;-96
2024/01/14 06:06:36;;;;;;;28.77;22.55;;;;;;;;;;4884369;29;20043;-95
2024/01/14 06:09:02;;;;;;;33.05;23.33;;;;;;;;;;4885057;29;20439;-95
2024/01/14 06:11:31;;;;;;;30.88;22.67;;;;;;;;;;4867959;29;20048;-96
2024/01/14 06:14:00;;;;;;;30.02;21.77;;;;;;;;;;4866608;29;20033;-95
2024/01/14 06:16:27;;;;;;;30.50;24.10;;;;;;;;;;4866187;29;20029;-94
2024/01/14 06:18:53;;;;;;;30.23;23.58;;;;;;;;;;4876991;29;20035;-95
2024/01/14 06:21:19;;;;;;;30.58;21.95;;;;;;;;;;4884803;29;20088;-92
2024/01/14 06:23:45;;;;;;;30.77;23.35;;;;;;;;;;4884338;29;20442;-95
2024/01/14 06:26:15;;;;;;;29.63;22.58;;;;;;;;;;4884367;29;20029;-94
2024/01/14 06:28:42;;;;;;;29.95;23.88;;;;;;;;;;4883484;29;20501;-96
2024/01/14 06:34:35;;;;;;;27.85;22.75;;;;;;;;;;4967465;23;20108;-96
2024/01/14 06:37:07;;;;;;;30.40;22.42;;;;;;;;;;4865439;29;20033;-95
2024/01/14 06:39:57;;;;;;;28.67;21.77;;;;;;;;;;4865670;29;20032;-96
2024/01/14 06:42:31;;;;;;;31.23;24.42;;;;;;;;;;4857588;29;20136;-93
2024/01/14 06:45:00;;;;;;;31.67;22.35;;;;;;;;;;4851205;29;20116;-96
2024/01/14 06:47:50;;;;;;;29.65;22.92;;;;;;;;;;4859824;29;20029;-96
2024/01/14 06:50:38;;;;;;;28.42;21.17;;;;;;;;;;4879669;29;20037;-95
2024/01/14 06:53:10;;;;;;;32.03;21.63;;;;;;;;;;4865566;29;20032;-92
2024/01/14 06:55:36;;;;;;;31.20;23.90;;;;;;;;;;4865402;29;20039;-96
2024/01/14 06:58:02;;;;;;;28.65;22.67;;;;;;;;;;4865752;29;20068;-92
2024/01/14 07:00:30;;;;;;;28.90;21.10;;;;;;;;;;4876685;29;20039;-94
2024/01/14 07:02:57;;;;;;;29.40;22.67;;;;;;;;;;4869286;29;20040;-92
2024/01/14 07:05:23;;;;;;;28.58;22.33;;;;;;;;;;4866631;29;20025;-95
2024/01/14 07:07:55;;;;;;;31.77;23.52;;;;;;;;;;4883562;29;20036;-91
2024/01/14 07:10:21;;;;;;;27.90;21.73;;;;;;;;;;4867240;29;20096;-95
2024/01/14 07:12:49;;;;;;;25.85;23.08;;;;;;;;;;4866960;29;20036;-93
2024/01/14 07:15:16;;;;;;;30.17;25.23;;;;;;;;;;4875580;29;20028;-93
2024/01/14 07:17:50;;;;;;;27.77;23.50;;;;;;;;;;4876189;29;20037;-92
2024/01/14 07:23:21;;;;;;;27.30;24.40;;;;;;;;;;4887794;29;20075;-93
2024/01/14 07:32:14;;;;;;;23.50;18.83;;;;;;;;;;4884040;29;20097;-92
2024/01/14 07:34:40;;;;;;;26.08;21.30;;;;;;;;;;4877410;29;20033;-91
2024/01/14 07:37:06;;;;;;;26.10;22.30;;;;;;;;;;4855794;29;20025;-92
2024/01/14 07:39:32;;;;;;;29.02;25.08;;;;;;;;;;4853799;29;20063;-93
2024/01/14 07:41:59;;;;;;;28.30;25.40;;;;;;;;;;4899646;29;20052;-92
2024/01/14 07:44:29;;;;;;;30.95;27.52;;;;;;;;;;4897464;29;20082;-91
2024/01/14 07:46:55;;;;;;;26.73;24.02;;;;;;;;;;4882976;29;20455;-92
2024/01/14 08:01:54;;;;;;;25.50;22.52;;;;;;;;;;4880643;27;20061;-96
2024/01/14 08:04:20;;;;;;;;;;;;;;;;;;4869842;29;20505;-93
2024/01/14 08:10:42;;;;;;;25.13;22.55;;;;;;;;;;5156177;23;20052;-95
2024/01/14 08:13:14;;;;;;;23.48;21.23;;;;;;;;;;4826244;29;20064;-95
2024/01/14 08:18:37;;;;;;;23.25;20.95;;;;;;;;;;4864457;29;20102;-93
2024/01/14 08:21:10;;;;;;;26.00;23.45;;;;;;;;;;4879784;29;20025;-95
2024/01/14 08:23:49;;;;;;;25.92;22.63;;;;;;;;;;4873545;29;20021;-96
2024/01/14 08:26:16;;;;;;;26.98;24.42;;;;;;;;;;4868010;29;20033;-94
2024/01/14 08:28:45;;;;;;;32.20;27.15;;;;;;;;;;4866668;29;20061;-93
2024/01/14 08:31:11;;;;;;;29.27;25.85;;;;;;;;;;4865800;29;20066;-94
2024/01/14 08:33:42;;;;;;;29.38;26.63;;;;;;;;;;4886214;29;20033;-94
2024/01/14 08:36:41;;;;;;;;;;;;;;;;;;;;;
2024/01/14 08:42:33;;;;;;;23.75;21.38;;;;;;;;;;5328453;23;20044;-95
2024/01/14 08:45:11;;;;;;;26.23;23.48;;;;;;;;;;4869710;29;20399;-95
2024/01/14 08:47:38;;;;;;;28.70;26.15;;;;;;;;;;4865264;29;20021;-95
2024/01/14 08:53:39;;;;;;;24.15;21.42;;;;;;;;;;5069192;23;20108;-96
2024/01/14 08:56:21;;;;;;;24.73;22.30;;;;;;;;;;4888227;29;20072;-95
2024/01/14 08:58:51;;;;;;;26.40;23.80;;;;;;;;;;5217884;23;20131;-95
2024/01/14 09:01:17;;;;;;;27.20;24.67;;;;;;;;;;4871142;29;20029;-91
2024/01/14 09:03:44;;;;;;;25.73;23.30;;;;;;;;;;4862944;29;20064;-95
2024/01/14 09:06:11;;;;;;;24.38;21.98;;;;;;;;;;4886047;29;20033;-92
2024/01/14 09:08:52;;;;;;;27.75;25.23;;;;;;;;;;4868550;29;20040;-94
2024/01/14 09:11:19;;;;;;;25.30;22.98;;;;;;;;;;4867761;29;20045;-93
2024/01/14 09:13:51;;;;;;;24.98;22.58;;;;;;;;;;4883143;29;20029;-93
2024/01/14 09:16:58;;;;;;;25.20;22.70;;;;;;;;;;4867383;29;20033;-93
2024/01/14 09:25:06;;;;;;;24.63;22.23;;;;;;;;;;4919478;23;20031;-94
2024/01/14 09:27:36;;;;;;;25.52;23.25;;;;;;;;;;5229668;23;20037;-93
2024/01/14 09:30:12;;;;;;;27.00;24.42;;;;;;;;;;4875400;29;20506;-94
2024/01/14 09:33:05;;;;;;;27.05;24.67;;;;;;;;;;4869775;29;20562;-95
2024/01/14 09:35:37;;;;;;;23.38;21.08;;;;;;;;;;4870424;29;20036;-94
2024/01/14 09:38:28;;;;;;;27.27;24.85;;;;;;;;;;4887640;29;20060;-93
2024/01/14 09:41:10;;;;;;;25.08;22.55;;;;;;;;;;4885879;29;20045;-93
2024/01/14 09:43:41;;;;;;;24.60;22.45;;;;;;;;;;4872706;29;20043;-94
2024/01/14 09:46:07;;;;;;;27.95;25.50;;;;;;;;;;4876927;29;20094;-94
2024/01/14 09:48:37;;;;;;;30.08;27.33;;;;;;;;;;4872531;29;20039;-94
2024/01/14 09:53:58;;;;;;;30.00;27.50;;;;;;;;;;4904108;29;20040;-95
2024/01/14 09:56:25;;;;;;;32.67;30.02;;;;;;;;;;4886499;29;20036;-95
2024/01/14 09:59:01;;;;;;;40.47;37.30;;;;;;;;;;4885687;29;20020;-95
2024/01/14 10:01:30;;;;;;;49.97;46.47;;;;;;;;;;4886257;29;20063;-95
2024/01/14 10:04:16;;;;;;;56.88;53.13;;;;;;;;;;4885383;29;20024;-93
2024/01/14 10:07:02;;;;;;;;;;;;;;;;;;;;;
2024/01/14 10:09:37;;;;;;;20.13;18.33;;;;;;;;;;4879158;29;20092;-95
2024/01/14 10:12:19;;;;;;;18.30;16.50;;;;;;;;;;4903916;29;20047;-94
2024/01/14 10:14:45;;;;;;;15.52;13.70;;;;;;;;;;4885408;29;20033;-94
2024/01/14 10:17:15;;;;;;;13.57;11.68;;;;;;;;;;4884385;29;20048;-94
2024/01/14 10:19:44;;;;;;;12.20;10.85;;;;;;;;;;4883096;29;20048;-96
2024/01/14 10:22:11;;;;;;;13.60;11.48;;;;;;;;;;4867974;29;20037;-96
2024/01/14 10:24:37;;;;;;;13.18;11.15;;;;;;;;;;4876187;29;20033;-96
2024/01/14 10:30:19;;;;;;;13.27;11.20;;;;;;;;;;4846982;29;20057;-95
2024/01/14 10:32:46;;;;;;;12.50;10.30;;;;;;;;;;4847116;29;20105;-94
2024/01/14 10:35:15;;;;;;;17.15;11.60;;;;;;;;;;4854159;29;20049;-96
2024/01/14 10:37:45;;;;;;;12.63;11.07;;;;;;;;;;4851362;29;20072;-96
2024/01/14 10:40:18;;;;;;;14.60;12.05;;;;;;;;;;4867504;29;20559;-95
2024/01/14 10:42:47;;;;;;;;;;;;;;;;;;4867233;29;20113;-94
2024/01/14 10:45:14;;;;;;;15.90;12.18;;;;;;;;;;4866733;29;20360;-93
2024/01/14 10:48:04;;;;;;;16.50;13.32;;;;;;;;;;4865999;29;20033;-95
2024/01/14 10:50:35;;;;;;;20.17;18.08;;;;;;;;;;4866788;29;20029;-94
2024/01/14 10:53:12;;;;;;;18.75;15.55;;;;;;;;;;4866997;29;20037;-96
2024/01/14 10:55:44;;;;;;;22.00;19.73;;;;;;;;;;4866967;29;20033;-94
2024/01/14 10:58:22;;;;;;;29.20;26.65;;;;;;;;;;4867388;29;20101;-95
2024/01/14 11:01:32;;;;;;;25.85;23.55;;;;;;;;;;4867151;29;20402;-96
2024/01/14 11:04:07;;;;;;;20.52;18.50;;;;;;;;;;4811414;29;20034;-93
2024/01/14 11:06:40;;;;;;;18.58;16.58;;;;;;;;;;4812304;29;20038;-95
2024/01/14 11:09:12;;;;;;;17.38;15.35;;;;;;;;;;4817857;29;20093;-96
2024/01/14 11:22:01;;;;;;;18.75;15.30;;;;;;;;;;4884638;29;20045;-94
2024/01/14 11:24:33;;;;;;;17.40;15.55;;;;;;;;;;4884511;29;20036;-93
2024/01/14 11:27:06;;;;;;;19.63;16.43;;;;;;;;;;4884948;29;20033;-93
2024/01/14 11:29:32;;;;;;;18.77;15.55;;;;;;;;;;4885179;29;20036;-94
2024/01/14 11:32:12;;;;;;;20.00;15.65;;;;;;;;;;4883802;29;20048;-95
2024/01/14 11:34:47;;;;;;;18.95;16.27;;;;;;;;;;4894717;23;20520;-94
2024/01/14 11:37:39;;;;;;;19.48;16.92;;;;;;;;;;4865464;29;20029;-93
2024/01/14 11:43:10;;;;;;;22.55;20.13;;;;;;;;;;4917453;23;20032;-93
2024/01/14 11:48:27;;;;;;;24.63;22.10;;;;;;;;;;5337241;23;20053;-96
2024/01/14 11:51:06;;;;;;;25.30;22.67;;;;;;;;;;4866456;29;20037;-96
2024/01/14 11:53:38;;;;;;;25.13;22.42;;;;;;;;;;4882446;23;20136;-94
2024/01/14 11:56:39;;;;;;;25.45;21.75;;;;;;;;;;4882209;29;20043;-95
2024/01/14 11:59:16;;;;;;;23.55;20.58;;;;;;;;;;4898366;23;20143;-93
2024/01/14 12:07:34;;;;;;;19.77;12.90;;;;;;;;;;4865076;29;20058;-93
2024/01/14 12:10:19;;;;;;;24.63;20.42;;;;;;;;;;4861976;29;20030;-92
2024/01/14 12:21:05;;;;;;;19.27;15.05;;;;;;;;;;5111928;23;20061;-93
2024/01/14 12:23:34;;;;;;;23.67;16.85;;;;;;;;;;4883675;29;20041;-93
2024/01/14 12:26:07;;;;;;;19.30;14.57;;;;;;;;;;4884449;29;20076;-93
2024/01/14 12:28:42;;;;;;;18.80;14.93;;;;;;;;;;4886469;29;20028;-93
2024/01/14 12:31:21;;;;;;;19.75;16.13;;;;;;;;;;4864369;29;20045;-92
2024/01/14 12:33:48;;;;;;;24.35;13.73;;;;;;;;;;4866050;29;20033;-93
2024/01/14 12:36:17;;;;;;;22.25;18.13;;;;;;;;;;4867541;29;20085;-90
2024/01/14 12:38:50;;;;;;;22.80;18.75;;;;;;;;;;4867696;29;20025;-93
2024/01/14 12:41:20;;;;;;;19.38;15.15;;;;;;;;;;4868306;29;20127;-93
2024/01/14 12:43:56;;;;;;;20.00;16.67;;;;;;;;;;4868460;29;20056;-92
2024/01/14 12:46:34;;;;;;;19.70;14.73;;;;;;;;;;4868288;29;20060;-93
2024/01/14 12:49:19;;;;;;;20.35;15.27;;;;;;;;;;4856013;29;20399;-92
2024/01/14 12:54:49;;;;;;;22.03;13.80;;;;;;;;;;4885566;29;20047;-91
2024/01/14 12:57:15;;;;;;;21.10;14.98;;;;;;;;;;5209861;23;20057;-92
2024/01/14 12:59:44;;;;;;;20.02;13.43;;;;;;;;;;4952778;23;20037;-92
2024/01/14 13:02:10;;;;;;;16.17;11.98;;;;;;;;;;4874377;29;20037;-91
2024/01/14 13:04:40;;;;;;;19.35;13.80;;;;;;;;;;4867919;29;20025;-94
2024/01/14 13:07:07;;;;;;;21.70;16.63;;;;;;;;;;4867553;29;20040;-93
2024/01/14 13:09:36;;;;;;;22.13;15.93;;;;;;;;;;4867323;29;20028;-92
2024/01/14 13:12:08;;;;;;;20.73;13.95;;;;;;;;;;4874000;29;20044;-90
2024/01/14 13:14:34;;;;;;;19.67;13.25;;;;;;;;;;4885987;29;20509;-91
2024/01/14 13:17:00;;;;;;;18.77;13.68;;;;;;;;;;4885495;29;20025;-93
2024/01/14 13:19:29;;;;;;;18.65;13.38;;;;;;;;;;4885467;29;20036;-91
2024/01/14 13:22:04;;;;;;;18.95;15.20;;;;;;;;;;4884838;29;20041;-92
2024/01/14 13:24:36;;;;;;;17.10;13.82;;;;;;;;;;4866774;29;20029;-92
2024/01/14 13:27:02;;;;;;;22.90;14.50;;;;;;;;;;4867909;29;20471;-91
2024/01/14 13:29:28;;;;;;;20.77;14.80;;;;;;;;;;4866723;29;20035;-93
2024/01/14 13:38:01;;;;;;;17.10;12.75;;;;;;;;;;4863083;29;20072;-92
2024/01/14 13:46:34;;;;;;;20.20;14.30;;;;;;;;;;4863657;29;20041;-94
2024/01/14 13:49:13;;;;;;;17.42;13.38;;;;;;;;;;4862853;29;20095;-92
2024/01/14 13:51:48;;;;;;;20.55;14.50;;;;;;;;;;4881201;29;20048;-94
2024/01/14 13:54:15;;;;;;;18.13;14.07;;;;;;;;;;4881867;29;20037;-94
2024/01/14 13:56:50;;;;;;;19.23;16.80;;;;;;;;;;4868380;29;20098;-93
2024/01/14 13:59:19;;;;;;;19.05;16.55;;;;;;;;;;4862757;29;20054;-92
2024/01/14 14:01:48;;;;;;;22.38;19.38;;;;;;;;;;4870844;29;20033;-94
2024/01/14 14:04:17;;;;;;;23.42;21.13;;;;;;;;;;4862300;29;20038;-94
2024/01/14 14:06:43;;;;;;;21.88;19.23;;;;;;;;;;4875269;29;20510;-94
2024/01/14 14:09:15;;;;;;;23.20;20.77;;;;;;;;;;4881625;29;20120;-94
2024/01/14 14:11:45;;;;;;;25.55;22.92;;;;;;;;;;4881473;29;20033;-94
2024/01/14 14:14:13;;;;;;;24.20;21.63;;;;;;;;;;4881556;29;20034;-94
2024/01/14 14:16:43;;;;;;;24.92;21.13;;;;;;;;;;4881869;29;20035;-94
2024/01/14 14:19:21;;;;;;;24.05;21.55;;;;;;;;;;4881293;29;20029;-94
2024/01/14 14:21:48;;;;;;;23.15;20.83;;;;;;;;;;4880834;29;20048;-94
2024/01/14 14:24:15;;;;;;;21.35;19.02;;;;;;;;;;4881441;29;20515;-94
2024/01/14 14:26:43;;;;;;;22.85;20.48;;;;;;;;;;4881546;29;20033;-94
2024/01/14 14:29:21;;;;;;;22.95;19.83;;;;;;;;;;4881173;29;20075;-93
2024/01/14 14:31:53;;;;;;;20.13;18.13;;;;;;;;;;4882150;29;20048;-93
2024/01/14 14:34:22;;;;;;;21.23;18.50;;;;;;;;;;4885322;29;20123;-93
2024/01/14 14:36:48;;;;;;;23.50;19.00;;;;;;;;;;4885765;29;20075;-93
2024/01/14 14:39:14;;;;;;;21.45;17.08;;;;;;;;;;4881813;29;20036;-93
2024/01/14 14:41:43;;;;;;;23.17;17.63;;;;;;;;;;4872115;29;20013;-92
2024/01/14 14:44:10;;;;;;;21.70;17.38;;;;;;;;;;4896720;29;20036;-93
2024/01/14 14:46:36;;;;;;;23.15;19.77;;;;;;;;;;4882918;29;20447;-93
2024/01/14 14:49:08;;;;;;;21.23;19.02;;;;;;;;;;4866614;29;20100;-92
2024/01/14 14:51:38;;;;;;;20.20;15.05;;;;;;;;;;4866328;29;20099;-93
2024/01/14 14:54:17;;;;;;;22.33;16.77;;;;;;;;;;4864883;29;20449;-93
2024/01/14 14:56:53;;;;;;;22.35;18.30;;;;;;;;;;4883409;29;20115;-91
2024/01/14 14:59:26;;;;;;;22.45;19.25;;;;;;;;;;4884108;29;20068;-92
2024/01/14 15:01:52;;;;;;;22.23;18.05;;;;;;;;;;4886084;29;20059;-93
2024/01/14 15:04:18;;;;;;;21.17;18.77;;;;;;;;;;4885525;29;20494;-92
2024/01/14 15:06:44;;;;;;;22.25;16.95;;;;;;;;;;4885723;29;20028;-92
2024/01/14 15:09:25;;;;;;;20.27;18.08;;;;;;;;;;4890333;29;20052;-93
2024/01/14 15:11:51;;;;;;;21.92;16.30;;;;;;;;;;4884588;29;20127;-92
2024/01/14 15:29:15;;;;;;;21.13;14.27;;;;;;;;;;4793703;29;20087;-90
2024/01/14 15:34:39;;;;;;;24.17;17.45;;;;;;;;;;4848125;29;20033;-92
2024/01/14 15:37:05;;;;;;;23.92;15.75;;;;;;;;;;4866887;29;20033;-92
2024/01/14 15:39:56;;;;;;;26.65;15.77;;;;;;;;;;4866986;29;20493;-94
2024/01/14 15:42:56;;;;;;;20.10;13.20;;;;;;;;;;4866467;29;20029;-93
2024/01/14 15:45:22;;;;;;;20.30;14.10;;;;;;;;;;4865914;29;20459;-93
2024/01/14 15:53:57;;;;;;;20.45;12.65;;;;;;;;;;4846530;29;20120;-93
2024/01/14 15:56:23;;;;;;;22.08;14.57;;;;;;;;;;4835993;29;20081;-92
2024/01/14 15:59:10;;;;;;;28.08;17.13;;;;;;;;;;4865317;29;20029;-93
2024/01/14 16:01:40;;;;;;;26.45;14.50;;;;;;;;;;4865162;29;20025;-93
2024/01/14 16:04:21;;;;;;;26.67;16.05;;;;;;;;;;4899526;23;20081;-94
2024/01/14 16:10:03;;;;;;;19.10;12.40;;;;;;;;;;4901491;29;20398;-93
2024/01/14 16:15:15;;;;;;;21.55;14.75;;;;;;;;;;4960004;23;20059;-95
2024/01/14 16:17:42;;;;;;;20.88;15.02;;;;;;;;;;4907553;23;20064;-94
2024/01/14 16:20:11;;;;;;;26.05;17.25;;;;;;;;;;4864848;29;20139;-94
2024/01/14 16:44:18;;;;;;;24.80;16.00;;;;;;;;;;5587379;23;20057;-95
2024/01/14 16:53:03;;;;;;;23.05;16.38;;;;;;;;;;5094721;23;20068;-93
2024/01/14 16:55:30;;;;;;;25.73;19.25;;;;;;;;;;4882048;29;20041;-93
2024/01/14 17:07:23;;;;;;;26.77;17.50;;;;;;;;;;4873887;23;20513;-94
2024/01/14 18:17:22;;;;;;;23.45;17.50;;;;;;;;;;5663460;23;20037;-94
2024/01/14 18:31:18;;;;;;;22.13;17.58;;;;;;;;;;5434242;23;20064;-95
2024/01/14 18:46:58;;;;;;;24.65;18.80;;;;;;;;;;4886518;29;20059;-96
2024/01/14 18:55:24;;;;;;;28.60;19.27;;;;;;;;;;5222652;23;20072;-93
2024/01/14 19:12:16;;;;;;;27.02;20.00;;;;;;;;;;4879924;27;20084;-92
2024/01/14 19:14:51;;;;;;;31.98;21.30;;;;;;;;;;4846962;29;20116;-95
2024/01/14 19:17:26;;;;;;;29.88;20.83;;;;;;;;;;4844323;29;20042;-95
2024/01/14 19:25:49;;;;;;;25.90;19.98;;;;;;;;;;4844669;29;20041;-96
2024/01/14 19:34:03;;;;;;;43.17;28.50;;;;;;;;;;4901971;29;20500;-95
2024/01/14 19:58:05;;;;;;;58.75;34.53;;;;;;;;;;4862566;29;20094;-91
2024/01/14 20:03:07;;;;;;;52.47;34.65;;;;;;;;;;5963669;23;19918;-94
2024/01/14 20:05:49;;;;;;;65.20;38.10;;;;;;;;;;4859020;29;20053;-92
2024/01/14 20:08:42;;;;;;;63.03;37.25;;;;;;;;;;4853938;29;20065;-93
2024/01/14 20:11:37;;;;;;;63.97;36.80;;;;;;;;;;4863613;29;20037;-92
2024/01/14 20:14:21;;;;;;;48.10;30.00;;;;;;;;;;4863385;29;20041;-92
2024/01/14 20:17:24;;;;;;;34.15;25.60;;;;;;;;;;4863654;29;20036;-94
2024/01/14 20:19:50;;;;;;;24.65;20.42;;;;;;;;;;4863891;29;20153;-92
2024/01/14 20:28:10;;;;;;;25.35;19.50;;;;;;;;;;4881548;23;20056;-91
2024/01/14 20:30:45;;;;;;;25.95;22.90;;;;;;;;;;4864025;29;20119;-93
2024/01/14 20:33:11;;;;;;;26.92;23.67;;;;;;;;;;4864677;29;20049;-92
2024/01/14 20:35:47;;;;;;;23.70;20.75;;;;;;;;;;4875174;29;20029;-91
2024/01/14 20:50:06;;;;;;;24.43;20.10;;;;;;;;;;4880384;29;20040;-93
2024/01/14 20:55:10;;;;;;;25.35;20.27;;;;;;;;;;4909047;23;20056;-93
2024/01/14 20:57:42;;;;;;;29.02;21.42;;;;;;;;;;4869176;29;20033;-96
2024/01/14 21:00:09;;;;;;;25.63;19.02;;;;;;;;;;4867810;29;20064;-94
2024/01/14 21:05:25;;;;;;;23.33;20.83;;;;;;;;;;4895036;23;20558;-94
2024/01/14 21:07:59;;;;;;;26.02;20.23;;;;;;;;;;4867403;29;20089;-91
2024/01/14 21:10:26;;;;;;;25.95;19.80;;;;;;;;;;4867562;29;20033;-93
2024/01/14 21:12:52;;;;;;;24.83;20.15;;;;;;;;;;4867280;29;20479;-93
2024/01/14 21:15:36;;;;;;;29.55;23.25;;;;;;;;;;4862450;29;20522;-93
2024/01/14 21:18:08;;;;;;;30.40;20.38;;;;;;;;;;4863473;29;20037;-95
2024/01/14 21:20:34;;;;;;;27.65;21.55;;;;;;;;;;4863190;29;20128;-92
2024/01/14 21:32:20;;;;;;;25.58;20.38;;;;;;;;;;4883235;29;20099;-96
2024/01/14 21:43:17;;;;;;;27.88;21.15;;;;;;;;;;4977635;23;20080;-93
2024/01/14 21:48:47;;;;;;;26.50;19.33;;;;;;;;;;4888191;29;20534;-93
2024/01/14 21:51:26;;;;;;;27.27;18.30;;;;;;;;;;4866424;29;20116;-96
2024/01/14 21:53:58;;;;;;;24.75;18.85;;;;;;;;;;4866604;29;20073;-94